Time;durP1;ratioP1;P1;durP2;ratioP2;P2;SDS_P1;SDS_P2;PMS_P1;PMS_P2;Temp;Humidity;BMP_temperature;BMP_pressure;BME280_temperature;BME280_humidity;BME280_pressure;Samples;Min_cycle;Max_cycle;Signal;HPM_P1;HPM_P2
2023/12/22 06:01:45;;;;;;;13.65;2.20;;;7.40;83.50;;;;;;4371542;23;20481;-78
2023/12/22 06:03:47;;;;;;;8.55;2.05;;;7.40;82.90;;;;;;4108656;29;20043;-78
2023/12/22 06:05:49;;;;;;;9.25;1.55;;;7.40;83.40;;;;;;4104233;29;20531;-78
2023/12/22 06:07:51;;;;;;;14.23;2.00;;;7.50;81.70;;;;;;4111100;28;20066;-80
2023/12/22 06:09:52;;;;;;;7.57;1.85;;;7.50;80.90;;;;;;4126662;28;20075;-78
2023/12/22 06:11:54;;;;;;;7.57;1.65;;;7.50;81.70;;;;;;4115461;28;20536;-80
2023/12/22 06:13:56;;;;;;;8.68;1.73;;;7.50;82.20;;;;;;4102337;29;20475;-79
2023/12/22 06:15:57;;;;;;;7.82;1.40;;;7.40;82.00;;;;;;4101942;29;20051;-78
2023/12/22 06:18:00;;;;;;;7.50;1.52;;;7.50;82.30;;;;;;4102571;29;20456;-76
2023/12/22 06:20:02;;;;;;;6.70;1.45;;;7.60;80.70;;;;;;4107558;29;20051;-79
2023/12/22 06:22:03;;;;;;;7.25;1.40;;;7.60;80.60;;;;;;4108534;29;20153;-79
2023/12/22 06:24:06;;;;;;;7.53;1.52;;;7.60;81.00;;;;;;4117816;28;20043;-76
2023/12/22 06:26:11;;;;;;;8.32;2.10;;;7.60;81.50;;;;;;4122413;28;20086;-78
2023/12/22 06:28:13;;;;;;;8.55;1.65;;;7.50;82.20;;;;;;4118699;28;20082;-77
2023/12/22 06:30:15;;;;;;;9.10;1.85;;;7.40;83.20;;;;;;4117627;28;20050;-77
2023/12/22 06:32:17;;;;;;;8.38;1.55;;;7.40;82.80;;;;;;4119568;28;20457;-78
2023/12/22 06:34:20;;;;;;;8.10;1.50;;;7.40;83.20;;;;;;4117436;28;20153;-79
2023/12/22 06:36:23;;;;;;;8.10;1.65;;;7.40;82.00;;;;;;4117012;28;20054;-77
2023/12/22 06:38:25;;;;;;;10.52;2.08;;;7.40;82.80;;;;;;4117036;28;20051;-79
2023/12/22 06:40:27;;;;;;;6.68;1.80;;;7.40;83.00;;;;;;4117113;28;20484;-79
2023/12/22 06:42:29;;;;;;;7.20;1.70;;;7.40;82.60;;;;;;4116980;28;20050;-78
2023/12/22 06:44:31;;;;;;;13.02;1.83;;;7.40;82.50;;;;;;4116783;28;20097;-80
2023/12/22 06:46:33;;;;;;;6.93;2.05;;;7.50;81.90;;;;;;4116997;28;20484;-78
2023/12/22 06:48:37;;;;;;;5.95;1.50;;;7.50;82.50;;;;;;4116899;28;20051;-80
2023/12/22 06:50:40;;;;;;;9.07;1.58;;;7.50;82.10;;;;;;4116794;28;20055;-79
2023/12/22 06:52:42;;;;;;;9.35;1.63;;;7.50;82.60;;;;;;4116830;28;20464;-80
2023/12/22 06:54:43;;;;;;;4.93;1.25;;;7.50;82.10;;;;;;4116747;28;20051;-78
2023/12/22 06:56:45;;;;;;;6.32;1.60;;;7.50;82.30;;;;;;4116825;28;20476;-78
2023/12/22 06:58:48;;;;;;;5.95;1.33;;;7.50;83.20;;;;;;4116800;28;20106;-77
2023/12/22 07:00:50;;;;;;;7.45;1.60;;;7.40;84.30;;;;;;4109782;28;20105;-79
2023/12/22 07:02:52;;;;;;;7.57;1.40;;;7.40;84.20;;;;;;4116621;28;20051;-80
2023/12/22 07:05:36;;;;;;;7.93;1.30;;;7.30;85.10;;;;;;4116532;28;20101;-78
2023/12/22 07:07:39;;;;;;;6.82;1.48;;;7.20;87.50;;;;;;4116019;28;20055;-79
2023/12/22 07:09:41;;;;;;;7.10;1.42;;;7.00;89.30;;;;;;4116539;28;20142;-78
2023/12/22 07:11:44;;;;;;;10.23;1.73;;;6.90;89.90;;;;;;4116485;28;20551;-78
2023/12/22 07:13:46;;;;;;;7.18;1.60;;;6.90;90.60;;;;;;4116538;28;20055;-79
2023/12/22 07:15:48;;;;;;;9.18;2.10;;;6.80;90.70;;;;;;4116559;28;20267;-79
2023/12/22 07:17:49;;;;;;;7.95;1.45;;;6.80;90.80;;;;;;4116524;28;20504;-79
2023/12/22 07:19:52;;;;;;;7.03;1.60;;;6.80;90.40;;;;;;4116471;28;20046;-79
2023/12/22 07:21:54;;;;;;;10.00;1.48;;;6.90;88.80;;;;;;4116477;28;20074;-79
2023/12/22 07:23:57;;;;;;;10.60;1.63;;;6.90;88.60;;;;;;4116115;28;20051;-78
2023/12/22 07:25:59;;;;;;;9.38;2.58;;;7.00;87.40;;;;;;4116357;28;20461;-78
2023/12/22 07:28:00;;;;;;;7.88;1.85;;;7.00;86.60;;;;;;4116724;28;20051;-77
2023/12/22 07:30:02;;;;;;;10.65;2.00;;;7.10;85.90;;;;;;4116707;28;20555;-78
2023/12/22 07:32:05;;;;;;;9.35;1.80;;;7.10;85.00;;;;;;4116312;28;20050;-78
2023/12/22 07:34:07;;;;;;;9.48;1.63;;;7.20;84.80;;;;;;4116384;28;20547;-79
2023/12/22 07:36:09;;;;;;;7.57;1.48;;;7.20;84.80;;;;;;4116209;28;20058;-78
2023/12/22 07:38:11;;;;;;;12.35;1.70;;;7.20;83.40;;;;;;4116567;28;20058;-78
2023/12/22 07:40:14;;;;;;;8.30;1.52;;;7.30;82.80;;;;;;4116394;28;20547;-76
2023/12/22 07:42:16;;;;;;;7.82;1.50;;;7.40;81.20;;;;;;4116539;28;20047;-78
2023/12/22 07:44:18;;;;;;;7.85;1.60;;;7.40;81.60;;;;;;4116217;28;20078;-77
2023/12/22 07:46:21;;;;;;;8.55;1.85;;;7.40;81.70;;;;;;4116339;28;20050;-79
2023/12/22 07:48:23;;;;;;;5.80;1.70;;;7.40;81.80;;;;;;4116306;28;20408;-76
2023/12/22 07:50:25;;;;;;;7.43;1.73;;;7.40;82.80;;;;;;4116071;28;20047;-80
2023/12/22 07:52:27;;;;;;;11.57;2.33;;;7.30;84.30;;;;;;4116281;28;20384;-79
2023/12/22 07:54:29;;;;;;;9.60;1.70;;;7.30;85.20;;;;;;4116288;28;20050;-78
2023/12/22 07:56:32;;;;;;;7.45;1.88;;;7.30;85.80;;;;;;4116286;28;20054;-79
2023/12/22 07:58:34;;;;;;;10.52;1.80;;;7.20;86.10;;;;;;4116224;28;20102;-77
2023/12/22 08:00:37;;;;;;;8.85;1.75;;;7.20;86.30;;;;;;4114595;28;20097;-79
2023/12/22 08:02:38;;;;;;;9.63;2.00;;;7.20;85.90;;;;;;4100127;29;20054;-76
2023/12/22 08:04:41;;;;;;;10.27;1.85;;;7.20;86.90;;;;;;4100289;29;20051;-78
2023/12/22 08:06:42;;;;;;;11.73;2.10;;;7.10;87.40;;;;;;4100283;29;20090;-78
2023/12/22 08:08:43;;;;;;;9.35;1.73;;;7.10;87.90;;;;;;4100404;29;20047;-78
2023/12/22 08:10:45;;;;;;;10.98;2.15;;;7.10;89.40;;;;;;4099966;29;20078;-80
2023/12/22 08:12:49;;;;;;;12.77;2.35;;;7.00;90.20;;;;;;4099701;29;20044;-79
2023/12/22 08:14:50;;;;;;;12.52;2.30;;;6.90;90.10;;;;;;4099919;29;20401;-78
2023/12/22 08:16:52;;;;;;;11.43;2.45;;;7.00;90.20;;;;;;4100174;28;20091;-80
2023/12/22 08:18:54;;;;;;;10.68;1.77;;;7.00;90.60;;;;;;4101813;28;20051;-80
2023/12/22 08:20:56;;;;;;;11.15;2.50;;;6.90;90.70;;;;;;4103041;28;20051;-79
2023/12/22 08:22:57;;;;;;;11.18;2.95;;;6.90;90.50;;;;;;4103032;28;20390;-80
2023/12/22 08:24:58;;;;;;;9.90;2.20;;;7.00;90.60;;;;;;4101436;28;20075;-80
2023/12/22 08:27:00;;;;;;;9.82;1.67;;;7.00;90.50;;;;;;4102817;29;20113;-79
2023/12/22 08:29:02;;;;;;;7.65;2.03;;;7.00;90.00;;;;;;4102819;29;20109;-79
2023/12/22 08:31:04;;;;;;;12.93;1.92;;;7.00;88.90;;;;;;4102374;29;20083;-80
2023/12/22 08:33:06;;;;;;;10.15;1.88;;;7.20;87.10;;;;;;4102661;29;20083;-79
2023/12/22 08:35:09;;;;;;;10.43;2.22;;;7.30;85.90;;;;;;4102837;29;20425;-79
2023/12/22 08:37:10;;;;;;;9.82;1.92;;;7.40;85.30;;;;;;4102394;29;20046;-79
2023/12/22 08:39:12;;;;;;;11.05;1.75;;;7.40;85.30;;;;;;4102823;28;20099;-79
2023/12/22 08:41:14;;;;;;;11.85;1.85;;;7.50;84.20;;;;;;4102906;29;20097;-80
2023/12/22 08:43:16;;;;;;;10.52;1.92;;;7.60;84.10;;;;;;4102809;29;20051;-80
2023/12/22 08:45:19;;;;;;;14.27;2.42;;;7.60;84.20;;;;;;4102963;29;20460;-79
2023/12/22 08:47:21;;;;;;;8.13;2.30;;;7.60;84.00;;;;;;4102501;29;20051;-79
2023/12/22 08:49:23;;;;;;;11.23;2.22;;;7.60;84.20;;;;;;4102709;29;20481;-78
2023/12/22 08:51:24;;;;;;;11.20;2.03;;;7.60;84.20;;;;;;4102583;29;20051;-79
2023/12/22 08:53:29;;;;;;;11.48;2.25;;;7.70;83.80;;;;;;4102658;29;20047;-79
2023/12/22 08:55:31;;;;;;;10.05;2.10;;;7.60;85.40;;;;;;4102571;29;20047;-80
2023/12/22 08:57:33;;;;;;;9.05;2.08;;;7.60;86.20;;;;;;4102322;29;20048;-78
2023/12/22 08:59:35;;;;;;;10.45;2.10;;;7.50;85.90;;;;;;4103202;28;20055;-79
2023/12/22 09:01:40;;;;;;;8.35;1.88;;;7.60;85.90;;;;;;4118163;28;20051;-79
2023/12/22 09:03:45;;;;;;;10.77;2.28;;;7.60;85.60;;;;;;4118313;28;20051;-79
2023/12/22 09:05:47;;;;;;;6.57;1.53;;;7.60;86.40;;;;;;4118483;28;20047;-80
2023/12/22 09:07:49;;;;;;;9.00;2.28;;;7.60;85.50;;;;;;4118458;28;20125;-78
2023/12/22 09:09:51;;;;;;;9.57;1.70;;;7.60;87.00;;;;;;4118209;28;20047;-79
2023/12/22 09:11:53;;;;;;;8.75;1.67;;;7.70;84.50;;;;;;4118434;28;20047;-79
2023/12/22 09:13:55;;;;;;;12.20;2.15;;;7.70;83.60;;;;;;4118347;28;20043;-78
2023/12/22 09:15:58;;;;;;;8.20;1.80;;;7.70;83.50;;;;;;4118276;28;20109;-80
2023/12/22 09:18:02;;;;;;;9.80;2.03;;;7.80;82.70;;;;;;4118438;28;20429;-79
2023/12/22 09:20:05;;;;;;;11.65;2.08;;;7.80;83.20;;;;;;4118140;28;20054;-77
2023/12/22 09:22:07;;;;;;;8.52;2.40;;;7.80;82.50;;;;;;4122484;28;20043;-76
2023/12/22 09:24:08;;;;;;;10.93;2.00;;;7.80;83.20;;;;;;4124247;28;20054;-77
2023/12/22 09:26:10;;;;;;;13.73;2.22;;;7.80;83.00;;;;;;4115717;28;20083;-79
2023/12/22 09:28:12;;;;;;;10.90;2.45;;;7.80;82.70;;;;;;4100145;29;20075;-78
2023/12/22 09:30:14;;;;;;;10.65;2.03;;;7.80;83.40;;;;;;4099753;28;20106;-75
2023/12/22 09:32:16;;;;;;;11.43;2.00;;;7.80;84.20;;;;;;4099682;29;20047;-77
2023/12/22 09:34:19;;;;;;;10.77;2.40;;;7.80;83.60;;;;;;4099931;28;20113;-77
2023/12/22 09:36:21;;;;;;;10.43;1.80;;;7.80;83.00;;;;;;4099970;29;20123;-79
2023/12/22 09:38:23;;;;;;;7.18;1.95;;;7.80;82.70;;;;;;4093855;29;20044;-79
2023/12/22 09:40:25;;;;;;;7.78;2.05;;;7.80;83.60;;;;;;4084819;29;20052;-76
2023/12/22 09:42:27;;;;;;;10.27;2.00;;;7.80;83.80;;;;;;4083818;29;20052;-78
2023/12/22 09:44:33;;;;;;;9.25;2.13;;;7.80;84.60;;;;;;4083973;29;20079;-78
2023/12/22 09:46:36;;;;;;;9.32;2.38;;;7.80;83.30;;;;;;4085219;29;20090;-80
2023/12/22 09:48:39;;;;;;;11.05;2.13;;;7.80;83.80;;;;;;4084005;29;20134;-78
2023/12/22 09:50:44;;;;;;;11.82;1.98;;;7.80;83.70;;;;;;4083586;29;20055;-80
2023/12/22 09:52:46;;;;;;;11.27;2.03;;;7.80;83.50;;;;;;4084123;29;20044;-79
2023/12/22 09:54:49;;;;;;;10.00;2.40;;;7.80;83.60;;;;;;4083722;29;20346;-78
2023/12/22 09:56:52;;;;;;;11.07;2.10;;;7.80;84.20;;;;;;4095453;29;20055;-78
2023/12/22 09:58:55;;;;;;;7.30;1.67;;;7.80;84.20;;;;;;4099585;29;20051;-79
2023/12/22 10:00:58;;;;;;;10.57;1.90;;;7.80;83.10;;;;;;4103592;28;20058;-78
2023/12/22 10:03:00;;;;;;;10.35;2.25;;;7.90;83.50;;;;;;4115581;28;20413;-78
2023/12/22 10:05:01;;;;;;;10.13;2.55;;;7.90;83.60;;;;;;4115502;28;20058;-79
2023/12/22 10:07:05;;;;;;;7.65;1.58;;;7.90;83.50;;;;;;4115105;28;20428;-79
2023/12/22 10:09:08;;;;;;;8.43;1.75;;;7.90;83.00;;;;;;4115244;28;20054;-80
2023/12/22 10:11:11;;;;;;;9.98;2.00;;;7.90;82.60;;;;;;4114991;28;20416;-82
2023/12/22 10:13:13;;;;;;;11.02;1.90;;;7.90;82.70;;;;;;4098207;29;20047;-82
2023/12/22 10:15:16;;;;;;;10.05;1.92;;;7.90;83.10;;;;;;4115294;28;20098;-76
2023/12/22 10:17:18;;;;;;;11.30;2.10;;;7.90;83.40;;;;;;4114771;28;20062;-80
2023/12/22 10:19:21;;;;;;;7.50;1.90;;;7.90;83.00;;;;;;4115504;28;20125;-81
2023/12/22 10:21:23;;;;;;;13.13;1.88;;;7.90;82.80;;;;;;4115298;28;20086;-82
2023/12/22 10:23:26;;;;;;;11.65;2.42;;;7.90;82.90;;;;;;4115549;28;20102;-81
2023/12/22 10:25:30;;;;;;;8.27;1.70;;;7.90;83.00;;;;;;4113135;28;20050;-80
2023/12/22 10:27:32;;;;;;;9.05;2.03;;;7.90;82.80;;;;;;4099133;29;20059;-81
2023/12/22 10:29:33;;;;;;;10.80;2.05;;;7.90;82.80;;;;;;4099097;28;20488;-79
2023/12/22 10:31:41;;;;;;;8.68;2.00;;;7.90;83.60;;;;;;4114606;28;20051;-81
2023/12/22 10:33:44;;;;;;;10.48;2.13;;;7.90;83.00;;;;;;4115138;28;20079;-80
2023/12/22 10:35:46;;;;;;;9.88;2.13;;;7.90;83.00;;;;;;4115108;28;20046;-83
2023/12/22 10:37:51;;;;;;;15.27;2.35;;;7.90;82.90;;;;;;4114640;28;20456;-81
2023/12/22 10:39:55;;;;;;;11.18;2.20;;;7.90;82.20;;;;;;4114948;28;20467;-81
2023/12/22 10:41:58;;;;;;;9.75;2.22;;;7.90;82.70;;;;;;4113882;28;20058;-80
2023/12/22 10:44:00;;;;;;;11.07;2.28;;;8.00;82.70;;;;;;4114958;28;20047;-82
2023/12/22 10:46:01;;;;;;;11.02;2.42;;;8.00;82.50;;;;;;4114367;28;20054;-85
2023/12/22 10:48:05;;;;;;;9.50;2.40;;;8.00;83.00;;;;;;4114939;28;20378;-82
2023/12/22 10:50:08;;;;;;;10.38;2.63;;;8.00;82.80;;;;;;4114379;28;20051;-82
2023/12/22 10:52:17;;;;;;;12.15;2.50;;;8.00;82.60;;;;;;4114671;28;20058;-80
2023/12/22 10:54:19;;;;;;;13.93;2.40;;;8.00;82.80;;;;;;4114682;28;20475;-82
2023/12/22 10:56:23;;;;;;;10.68;2.50;;;8.00;83.00;;;;;;4113797;28;20386;-81
2023/12/22 10:58:24;;;;;;;10.88;2.20;;;8.00;82.70;;;;;;4111958;28;20097;-79
2023/12/22 11:00:26;;;;;;;9.73;1.92;;;8.00;82.90;;;;;;4114305;28;20054;-82
2023/12/22 11:02:29;;;;;;;10.93;2.15;;;8.00;83.20;;;;;;4112857;28;20105;-80
2023/12/22 11:04:34;;;;;;;10.95;2.20;;;8.00;83.10;;;;;;4098578;28;20134;-81
2023/12/22 11:06:39;;;;;;;11.93;2.25;;;8.00;83.60;;;;;;4098718;28;20061;-82
2023/12/22 11:08:43;;;;;;;11.10;2.10;;;8.00;84.50;;;;;;4111859;28;20061;-82
2023/12/22 11:10:50;;;;;;;11.07;2.33;;;8.00;84.40;;;;;;4114829;28;20459;-84
2023/12/22 11:12:54;;;;;;;12.65;2.78;;;8.00;85.30;;;;;;4097129;29;20043;-82
2023/12/22 11:14:58;;;;;;;9.25;2.35;;;8.00;85.60;;;;;;4113979;28;20468;-80
2023/12/22 11:17:01;;;;;;;8.65;2.30;;;7.90;85.60;;;;;;4114252;28;20408;-80
2023/12/22 11:19:05;;;;;;;13.20;2.33;;;7.90;86.10;;;;;;4114192;28;20086;-83
2023/12/22 11:21:09;;;;;;;9.30;1.92;;;7.80;86.30;;;;;;4100010;29;20094;-77
2023/12/22 11:23:11;;;;;;;11.95;2.17;;;7.80;85.90;;;;;;4115996;28;20051;-82
2023/12/22 11:25:15;;;;;;;5.50;1.80;;;7.80;87.20;;;;;;4115845;28;20098;-81
2023/12/22 11:27:19;;;;;;;12.07;2.33;;;7.80;87.70;;;;;;4115149;28;20081;-82
2023/12/22 11:29:25;;;;;;;11.60;2.15;;;7.80;88.40;;;;;;4116422;28;20125;-80
2023/12/22 11:31:27;;;;;;;10.25;2.13;;;7.70;88.20;;;;;;4116553;28;20046;-80
2023/12/22 11:33:30;;;;;;;9.43;1.77;;;7.70;88.90;;;;;;4116346;28;20155;-83
2023/12/22 11:35:33;;;;;;;7.53;1.90;;;7.70;89.40;;;;;;4116176;28;20047;-82
2023/12/22 11:37:37;;;;;;;13.05;2.53;;;7.70;89.50;;;;;;4115566;28;20055;-84
2023/12/22 11:39:39;;;;;;;14.65;2.95;;;7.70;90.00;;;;;;4116729;28;20097;-87
2023/12/22 11:41:42;;;;;;;9.10;2.58;;;7.70;90.20;;;;;;4116891;28;20388;-85
2023/12/22 11:43:45;;;;;;;13.02;2.42;;;7.60;90.70;;;;;;4115803;28;20058;-81
2023/12/22 11:45:49;;;;;;;11.10;2.50;;;7.60;91.10;;;;;;4116216;28;20050;-85
2023/12/22 11:47:51;;;;;;;13.93;3.50;;;7.50;91.30;;;;;;4116527;28;20475;-83
2023/12/22 11:49:54;;;;;;;9.82;3.10;;;7.50;92.00;;;;;;4116284;28;20447;-86
2023/12/22 11:51:56;;;;;;;11.10;3.00;;;7.50;92.10;;;;;;4116487;28;20101;-81
2023/12/22 11:53:59;;;;;;;10.73;2.35;;;7.50;92.00;;;;;;4117366;28;20125;-82
2023/12/22 11:56:04;;;;;;;10.82;2.38;;;7.50;92.30;;;;;;4119655;28;20093;-84
2023/12/22 11:58:37;;;;;;;10.17;2.30;;;7.50;92.20;;;;;;4119173;28;20054;-82
2023/12/22 12:00:40;;;;;;;12.40;2.47;;;7.40;92.30;;;;;;4119009;28;20102;-82
2023/12/22 12:02:43;;;;;;;8.90;2.00;;;7.40;92.40;;;;;;4119462;28;20106;-81
2023/12/22 12:04:47;;;;;;;11.13;2.90;;;7.40;92.60;;;;;;4119201;28;20451;-82
2023/12/22 12:06:49;;;;;;;8.77;2.05;;;7.40;92.90;;;;;;4119483;28;20496;-78
2023/12/22 12:08:50;;;;;;;8.10;1.75;;;7.40;92.80;;;;;;4119353;28;20396;-77
2023/12/22 12:10:54;;;;;;;11.82;2.65;;;7.40;92.60;;;;;;4119199;28;20054;-79
2023/12/22 12:13:05;;;;;;;9.15;1.95;;;7.40;93.00;;;;;;4119189;28;20050;-80
2023/12/22 12:15:11;;;;;;;5.65;1.67;;;7.40;92.90;;;;;;4118989;28;20616;-81
2023/12/22 12:17:18;;;;;;;9.68;2.05;;;7.40;93.00;;;;;;4127737;28;20050;-80
2023/12/22 12:19:21;;;;;;;11.52;3.55;;;7.40;92.90;;;;;;4125730;28;20050;-79
2023/12/22 12:21:23;;;;;;;7.00;1.58;;;7.40;92.80;;;;;;4123110;28;20046;-80
2023/12/22 12:23:28;;;;;;;10.02;1.83;;;7.40;92.70;;;;;;4124485;28;20078;-81
2023/12/22 12:25:32;;;;;;;5.57;1.65;;;7.40;92.90;;;;;;4125543;28;20105;-80
2023/12/22 12:27:36;;;;;;;10.63;2.03;;;7.40;93.10;;;;;;4130039;28;20408;-81
2023/12/22 12:29:39;;;;;;;8.30;1.85;;;7.40;93.20;;;;;;4131885;28;20047;-82
2023/12/22 12:31:42;;;;;;;7.57;1.70;;;7.40;93.10;;;;;;4128856;28;20047;-81
2023/12/22 12:33:46;;;;;;;6.47;1.83;;;7.40;93.00;;;;;;4129904;28;20047;-80
2023/12/22 12:35:53;;;;;;;8.15;2.30;;;7.40;93.00;;;;;;4120502;28;20058;-79
2023/12/22 12:37:55;;;;;;;7.13;1.70;;;7.40;93.20;;;;;;4119411;28;20440;-79
2023/12/22 12:39:59;;;;;;;7.47;1.73;;;7.40;92.80;;;;;;4119677;28;20074;-77
2023/12/22 12:42:02;;;;;;;9.13;2.03;;;7.40;92.90;;;;;;4124345;28;20055;-78
2023/12/22 12:44:05;;;;;;;5.32;1.63;;;7.40;92.90;;;;;;4128505;28;20058;-79
2023/12/22 12:46:07;;;;;;;6.15;1.52;;;7.40;92.90;;;;;;4127355;28;20050;-79
2023/12/22 12:48:09;;;;;;;6.57;2.10;;;7.40;93.00;;;;;;4120675;28;20055;-79
2023/12/22 12:50:12;;;;;;;7.38;1.30;;;7.40;92.80;;;;;;4118879;28;20078;-80
2023/12/22 12:52:15;;;;;;;4.63;1.50;;;7.50;92.80;;;;;;4117908;28;20074;-79
2023/12/22 12:54:18;;;;;;;4.45;1.25;;;7.40;92.90;;;;;;4116776;28;20046;-79
2023/12/22 12:56:19;;;;;;;5.82;1.25;;;7.50;92.80;;;;;;4112409;28;20039;-75
2023/12/22 12:58:22;;;;;;;4.78;1.40;;;7.50;92.70;;;;;;4109350;28;20896;-81
2023/12/22 13:00:28;;;;;;;3.10;1.02;;;7.50;92.50;;;;;;4117347;28;20515;-77
2023/12/22 13:02:30;;;;;;;;;;;7.50;92.50;;;;;;4117912;28;20105;-81
2023/12/22 13:04:38;;;;;;;5.32;1.10;;;7.60;92.50;;;;;;4117042;28;20338;-80
2023/12/22 13:06:45;;;;;;;3.30;0.95;;;7.60;92.40;;;;;;4118080;28;20070;-77
2023/12/22 13:08:50;;;;;;;3.75;0.88;;;7.50;92.40;;;;;;4118279;28;20097;-82
2023/12/22 13:11:02;;;;;;;3.90;1.00;;;7.50;92.40;;;;;;4119365;28;20424;-78
2023/12/22 13:13:04;;;;;;;3.97;0.80;;;7.60;92.50;;;;;;4118887;28;20480;-78
2023/12/22 13:15:07;;;;;;;3.45;1.00;;;7.60;92.40;;;;;;4118573;28;20459;-80
2023/12/22 13:17:10;;;;;;;4.97;0.95;;;7.60;92.40;;;;;;4119826;28;20156;-81
2023/12/22 13:19:12;;;;;;;3.70;1.00;;;7.60;92.40;;;;;;4122028;28;20554;-80
2023/12/22 13:21:14;;;;;;;3.33;0.95;;;7.70;92.30;;;;;;4118542;28;20050;-78
2023/12/22 13:23:19;;;;;;;2.20;0.90;;;7.60;92.30;;;;;;4117530;28;20051;-78
2023/12/22 13:25:23;;;;;;;3.00;0.85;;;7.70;92.20;;;;;;4118103;28;20409;-76
2023/12/22 13:27:24;;;;;;;2.20;0.75;;;7.70;92.20;;;;;;4117603;28;20062;-79
2023/12/22 13:29:26;;;;;;;4.85;1.73;;;7.80;92.30;;;;;;4114987;28;20546;-76
2023/12/22 13:31:28;;;;;;;3.75;1.40;;;7.80;92.10;;;;;;4103499;28;20043;-80
2023/12/22 13:33:35;;;;;;;3.22;0.80;;;7.80;92.20;;;;;;4115869;28;20551;-78
2023/12/22 13:35:37;;;;;;;3.92;0.70;;;7.80;92.20;;;;;;4116772;28;20050;-79
2023/12/22 13:37:43;;;;;;;3.33;0.80;;;7.80;92.20;;;;;;4116541;28;20050;-80
2023/12/22 13:39:44;;;;;;;;;;;7.90;92.30;;;;;;4116710;28;20110;-82
2023/12/22 13:41:48;;;;;;;3.53;0.80;;;7.90;92.20;;;;;;4116815;28;19965;-80
2023/12/22 13:43:49;;;;;;;2.05;0.82;;;7.80;92.20;;;;;;4115974;28;20046;-80
2023/12/22 13:45:53;;;;;;;3.55;0.90;;;7.90;92.30;;;;;;4116712;28;20102;-79
2023/12/22 13:47:55;;;;;;;3.08;0.85;;;7.90;92.40;;;;;;4116561;28;20074;-81
2023/12/22 13:49:58;;;;;;;3.33;0.80;;;7.90;92.40;;;;;;4116146;28;20057;-79
2023/12/22 13:51:59;;;;;;;2.15;0.80;;;7.90;92.50;;;;;;4116573;28;20145;-77
2023/12/22 13:54:01;;;;;;;1.35;0.60;;;8.00;92.50;;;;;;4116230;28;20046;-80
2023/12/22 13:56:04;;;;;;;3.03;0.80;;;8.00;92.60;;;;;;4116315;28;20050;-80
2023/12/22 13:58:06;;;;;;;2.85;0.70;;;7.90;92.70;;;;;;4116532;28;20097;-80
2023/12/22 14:00:28;;;;;;;1.95;0.65;;;8.00;92.90;;;;;;4116275;28;20133;-84
2023/12/22 14:02:30;;;;;;;4.00;0.90;;;8.00;92.80;;;;;;4116376;28;20532;-79
2023/12/22 14:04:33;;;;;;;3.17;0.70;;;8.00;92.90;;;;;;4116388;28;20055;-78
2023/12/22 14:06:35;;;;;;;1.90;0.50;;;8.00;92.80;;;;;;4116534;28;20105;-81
2023/12/22 14:08:37;;;;;;;2.88;0.90;;;8.10;92.60;;;;;;4116318;28;20098;-78
2023/12/22 14:10:45;;;;;;;1.60;0.50;;;8.10;92.50;;;;;;4116018;28;20066;-78
2023/12/22 14:12:47;;;;;;;1.33;0.50;;;8.10;92.60;;;;;;4115886;28;20055;-80
2023/12/22 14:14:50;;;;;;;1.92;0.60;;;8.20;92.50;;;;;;4114488;28;20094;-88
2023/12/22 14:16:52;;;;;;;1.50;0.50;;;8.20;92.50;;;;;;4114559;28;20153;-85
2023/12/22 14:18:54;;;;;;;1.45;0.50;;;8.20;92.50;;;;;;4098971;29;20476;-81
2023/12/22 14:20:56;;;;;;;1.35;0.40;;;8.20;92.40;;;;;;4116586;28;20481;-78
2023/12/22 14:22:58;;;;;;;1.67;0.50;;;8.20;92.50;;;;;;4114552;28;20051;-81
2023/12/22 14:25:00;;;;;;;0.88;0.40;;;8.30;92.50;;;;;;4115672;28;20051;-78
2023/12/22 14:27:02;;;;;;;1.70;0.70;;;8.30;92.30;;;;;;4116144;28;20543;-78
2023/12/22 14:29:04;;;;;;;1.40;0.50;;;8.30;92.20;;;;;;4116200;28;20051;-79
2023/12/22 14:31:07;;;;;;;1.20;0.47;;;8.40;92.20;;;;;;4115998;28;20831;-79
2023/12/22 14:33:09;;;;;;;2.35;0.70;;;8.40;92.30;;;;;;4114813;28;20051;-75
2023/12/22 14:35:11;;;;;;;1.77;0.77;;;8.30;92.30;;;;;;4114911;28;20042;-75
2023/12/22 14:37:13;;;;;;;2.33;0.70;;;8.40;92.30;;;;;;4115303;28;20073;-80
2023/12/22 14:39:15;;;;;;;6.93;3.58;;;8.40;92.30;;;;;;4116043;28;20055;-78
2023/12/22 14:41:16;;;;;;;3.72;1.23;;;8.40;92.10;;;;;;4116063;28;20055;-80
2023/12/22 14:43:18;;;;;;;2.30;0.90;;;8.40;92.10;;;;;;4116312;28;20122;-80
2023/12/22 14:45:20;;;;;;;1.27;0.60;;;8.40;92.20;;;;;;4115946;28;20117;-81
2023/12/22 14:47:23;;;;;;;1.60;0.52;;;8.40;92.00;;;;;;4115972;28;20093;-80
2023/12/22 14:49:24;;;;;;;2.03;0.50;;;8.50;92.00;;;;;;4115689;28;20455;-80
2023/12/22 14:51:26;;;;;;;1.88;0.73;;;8.50;91.80;;;;;;4115740;28;20042;-80
2023/12/22 14:53:28;;;;;;;1.42;0.50;;;8.50;91.80;;;;;;4114708;28;20047;-80
2023/12/22 14:55:30;;;;;;;1.25;0.40;;;8.50;91.70;;;;;;4115949;28;20055;-81
2023/12/22 14:57:33;;;;;;;0.93;0.40;;;8.60;91.60;;;;;;4115951;28;20054;-81
2023/12/22 14:59:34;;;;;;;1.92;0.68;;;8.60;91.50;;;;;;4116151;28;20129;-81
2023/12/22 15:01:36;;;;;;;1.15;0.60;;;8.60;91.70;;;;;;4102752;29;20059;-81
2023/12/22 15:03:39;;;;;;;2.30;0.40;;;8.60;91.70;;;;;;4101951;28;20508;-81
2023/12/22 15:05:40;;;;;;;1.45;0.32;;;8.60;91.50;;;;;;4104155;28;20051;-84
2023/12/22 15:07:42;;;;;;;0.90;0.30;;;8.60;91.40;;;;;;4100247;29;20114;-82
2023/12/22 15:09:44;;;;;;;1.85;0.40;;;8.70;91.30;;;;;;4100360;28;20110;-80
2023/12/22 15:11:47;;;;;;;0.98;0.32;;;8.70;91.00;;;;;;4098530;28;20051;-81
2023/12/22 15:13:49;;;;;;;1.02;0.40;;;8.70;91.10;;;;;;4096031;29;20107;-82
2023/12/22 15:15:51;;;;;;;0.93;0.38;;;8.80;90.90;;;;;;4098269;29;20047;-81
2023/12/22 15:17:54;;;;;;;2.20;0.40;;;8.80;90.80;;;;;;4079225;29;20111;-82
2023/12/22 15:19:56;;;;;;;1.98;0.28;;;8.80;91.00;;;;;;4099635;29;20051;-82
2023/12/22 15:21:58;;;;;;;0.77;0.40;;;8.80;91.00;;;;;;4100163;29;20121;-82
2023/12/22 15:23:59;;;;;;;1.30;0.40;;;8.80;91.00;;;;;;4100042;29;20051;-83
2023/12/22 15:26:01;;;;;;;1.25;0.40;;;8.80;91.10;;;;;;4097855;29;20435;-79
2023/12/22 15:28:03;;;;;;;0.60;0.30;;;8.80;91.00;;;;;;4097503;28;20630;-78
2023/12/22 15:30:06;;;;;;;1.20;0.38;;;8.80;91.50;;;;;;4097900;29;20095;-81
2023/12/22 15:32:08;;;;;;;1.30;0.47;;;8.80;91.00;;;;;;4095218;29;20409;-81
2023/12/22 15:34:10;;;;;;;1.23;0.40;;;8.80;91.10;;;;;;4096283;29;20051;-82
2023/12/22 15:36:18;;;;;;;0.80;0.40;;;8.80;91.10;;;;;;4097763;29;20062;-82
2023/12/22 15:38:20;;;;;;;1.65;0.50;;;8.80;91.20;;;;;;4095990;29;20415;-82
2023/12/22 15:40:22;;;;;;;0.88;0.50;;;8.80;91.30;;;;;;4098189;29;20720;-82
2023/12/22 15:42:23;;;;;;;0.80;0.40;;;8.80;91.10;;;;;;4098324;29;20055;-82
2023/12/22 15:44:25;;;;;;;1.13;0.40;;;8.80;91.10;;;;;;4097162;29;20044;-82
2023/12/22 15:46:26;;;;;;;1.65;0.40;;;8.80;91.10;;;;;;4097549;29;20055;-83
2023/12/22 15:48:28;;;;;;;1.17;0.32;;;8.90;91.10;;;;;;4092292;29;20080;-83
2023/12/22 15:50:30;;;;;;;1.05;0.52;;;8.90;90.90;;;;;;4098884;29;20555;-83
2023/12/22 15:52:33;;;;;;;2.15;0.77;;;8.90;90.90;;;;;;4098548;29;20047;-83
2023/12/22 15:54:36;;;;;;;1.40;0.30;;;8.90;90.80;;;;;;4081486;29;20144;-83
2023/12/22 15:56:38;;;;;;;0.93;0.38;;;8.90;90.80;;;;;;4098961;29;20105;-81
2023/12/22 15:58:41;;;;;;;1.67;0.30;;;8.90;90.70;;;;;;4096033;29;20078;-82
2023/12/22 16:00:43;;;;;;;2.33;0.50;;;9.00;90.50;;;;;;4097886;28;20133;-82
2023/12/22 16:02:44;;;;;;;1.02;0.40;;;9.00;90.50;;;;;;4113361;28;20051;-81
2023/12/22 16:04:46;;;;;;;1.40;0.40;;;9.00;90.40;;;;;;4096924;29;20181;-80
2023/12/22 16:06:48;;;;;;;0.93;0.43;;;9.00;90.30;;;;;;4113598;28;20509;-82
2023/12/22 16:08:51;;;;;;;0.70;0.20;;;9.00;90.10;;;;;;4113707;28;20051;-81
2023/12/22 16:10:53;;;;;;;0.68;0.28;;;9.10;90.10;;;;;;4113921;28;20444;-81
2023/12/22 16:12:55;;;;;;;0.75;0.30;;;9.10;89.30;;;;;;4096174;29;20051;-85
2023/12/22 16:14:59;;;;;;;1.13;0.50;;;9.10;89.00;;;;;;4113832;28;20548;-81
2023/12/22 16:17:01;;;;;;;0.70;0.40;;;9.10;89.10;;;;;;4112045;28;20043;-80
2023/12/22 16:19:03;;;;;;;2.10;0.60;;;9.10;89.50;;;;;;4109966;28;20563;-80
2023/12/22 16:21:04;;;;;;;0.68;0.30;;;9.10;89.50;;;;;;4108333;28;20097;-80
2023/12/22 16:23:06;;;;;;;1.45;0.38;;;9.10;89.50;;;;;;4106583;28;20055;-79
2023/12/22 16:25:08;;;;;;;0.95;0.35;;;9.10;89.40;;;;;;4096848;29;20051;-81
2023/12/22 16:27:11;;;;;;;0.68;0.30;;;9.10;89.20;;;;;;4107956;28;20105;-80
2023/12/22 16:29:12;;;;;;;1.00;0.30;;;9.10;89.00;;;;;;4104373;28;20055;-80
2023/12/22 16:31:14;;;;;;;1.23;0.40;;;9.10;88.80;;;;;;4097919;28;20433;-80
2023/12/22 16:33:16;;;;;;;1.63;0.43;;;9.10;88.50;;;;;;4097256;28;20074;-81
2023/12/22 16:35:18;;;;;;;1.20;0.30;;;9.10;88.80;;;;;;4097183;29;20055;-79
2023/12/22 16:37:20;;;;;;;1.25;0.45;;;9.10;88.70;;;;;;4096862;29;20054;-80
2023/12/22 16:39:22;;;;;;;3.00;0.30;;;9.00;88.60;;;;;;4111187;28;20105;-82
2023/12/22 16:41:24;;;;;;;1.05;0.32;;;9.00;88.70;;;;;;4116195;28;20113;-80
2023/12/22 16:43:26;;;;;;;1.25;0.30;;;9.00;88.30;;;;;;4113929;28;20055;-80
2023/12/22 16:45:27;;;;;;;1.02;0.30;;;9.00;88.30;;;;;;4115683;28;20098;-81
2023/12/22 16:47:29;;;;;;;1.40;0.60;;;9.00;88.30;;;;;;4115894;28;20441;-78